createdAt,value
2018-12-10T00:02:19.191Z,28.90
2018-12-10T00:04:53.361Z,28.90
2018-12-10T00:07:26.945Z,28.90
2018-12-10T00:10:02.027Z,28.90
2018-12-10T00:12:36.203Z,28.80
2018-12-10T00:15:10.161Z,28.80
2018-12-10T00:17:44.284Z,28.80
2018-12-10T00:20:18.332Z,28.80
2018-12-10T00:22:52.685Z,28.80
2018-12-10T00:25:26.741Z,28.80
2018-12-10T00:28:01.170Z,28.80
2018-12-10T00:30:36.345Z,28.80
2018-12-10T00:33:10.521Z,28.80
2018-12-10T00:35:45.075Z,28.80
2018-12-10T00:38:18.764Z,28.90
2018-12-10T00:40:55.050Z,28.90
2018-12-10T00:43:28.900Z,28.80
2018-12-10T00:46:04.118Z,28.80
2018-12-10T00:48:38.418Z,28.80
2018-12-10T00:51:12.476Z,28.90
2018-12-10T00:53:46.333Z,28.90
2018-12-10T00:56:19.808Z,28.90
2018-12-10T00:58:53.817Z,28.90
2018-12-10T01:01:28.095Z,29.00
2018-12-10T01:04:03.568Z,29.00
2018-12-10T01:06:38.082Z,29.10
2018-12-10T01:09:12.878Z,29.10
2018-12-10T01:11:46.859Z,29.20
2018-12-10T01:14:20.546Z,29.30
2018-12-10T01:16:54.662Z,29.40
2018-12-10T01:19:30.064Z,29.40
2018-12-10T01:22:04.219Z,29.50
2018-12-10T01:24:39.304Z,29.60
2018-12-10T01:27:13.406Z,29.60
2018-12-10T01:29:47.770Z,29.70
2018-12-10T01:32:22.713Z,29.70
2018-12-10T01:34:57.201Z,29.80
2018-12-10T01:37:31.237Z,29.90
2018-12-10T01:40:05.264Z,29.90
2018-12-10T01:42:39.309Z,30.00
2018-12-10T01:45:13.369Z,30.00
2018-12-10T01:47:47.816Z,30.10
2018-12-10T01:50:21.774Z,30.20
2018-12-10T01:52:55.854Z,30.20
2018-12-10T01:55:30.874Z,30.30
2018-12-10T01:58:04.980Z,30.40
2018-12-10T02:00:39.225Z,30.40
2018-12-10T02:03:13.000Z,30.50
2018-12-10T02:05:48.455Z,30.60
2018-12-10T02:08:23.429Z,30.50
2018-12-10T02:10:57.435Z,30.60
2018-12-10T02:13:31.116Z,30.70
2018-12-10T02:16:06.200Z,30.70
2018-12-10T02:18:40.292Z,30.80
2018-12-10T02:21:14.858Z,30.90
2018-12-10T02:23:49.469Z,31.00
2018-12-10T02:26:26.229Z,31.00
2018-12-10T02:29:04.196Z,31.10
2018-12-10T02:31:37.923Z,31.20
2018-12-10T02:34:12.467Z,31.20
2018-12-10T02:36:46.251Z,31.30
2018-12-10T02:39:20.712Z,31.40
2018-12-10T02:41:54.808Z,31.50
2018-12-10T02:44:28.749Z,31.60
2018-12-10T02:47:03.316Z,31.70
2018-12-10T02:49:37.734Z,31.70
2018-12-10T02:52:13.285Z,31.70
2018-12-10T02:54:47.497Z,31.80
2018-12-10T02:57:21.845Z,31.80
2018-12-10T02:59:55.577Z,31.70
2018-12-10T03:02:29.253Z,31.70
2018-12-10T03:05:03.051Z,31.70
2018-12-10T03:07:37.068Z,31.70
2018-12-10T03:10:12.560Z,31.70
2018-12-10T03:12:47.697Z,31.80
2018-12-10T03:15:21.514Z,31.80
2018-12-10T03:17:55.921Z,31.80
2018-12-10T03:20:31.287Z,31.80
2018-12-10T03:23:06.135Z,31.90
2018-12-10T03:25:40.211Z,31.90
2018-12-10T03:28:14.259Z,31.90
2018-12-10T03:30:48.240Z,32.00
2018-12-10T03:33:22.873Z,32.00
2018-12-10T03:35:57.931Z,32.00
2018-12-10T03:38:32.799Z,32.00
2018-12-10T03:41:07.851Z,32.10
2018-12-10T03:43:41.438Z,32.10
2018-12-10T03:46:15.898Z,32.10
2018-12-10T03:48:49.894Z,32.10
2018-12-10T03:51:25.273Z,32.10
2018-12-10T03:53:59.136Z,32.10
2018-12-10T03:56:36.340Z,32.10
2018-12-10T03:59:10.402Z,32.10
2018-12-10T04:01:43.721Z,32.20
2018-12-10T04:04:18.428Z,32.20
2018-12-10T04:06:52.487Z,32.20
2018-12-10T04:09:28.084Z,32.20
2018-12-10T04:12:02.129Z,32.30
2018-12-10T04:14:35.902Z,32.40
2018-12-10T04:17:10.098Z,32.40
2018-12-10T04:19:45.405Z,32.40
2018-12-10T04:22:19.857Z,32.50
2018-12-10T04:24:53.775Z,32.50
2018-12-10T04:27:29.606Z,32.60
2018-12-10T04:30:03.521Z,32.60
2018-12-10T04:32:37.602Z,32.70
2018-12-10T04:35:11.608Z,32.80
2018-12-10T04:37:47.142Z,32.90
2018-12-10T04:40:22.340Z,33.00
2018-12-10T04:42:56.458Z,33.00
2018-12-10T04:45:30.816Z,33.10
2018-12-10T04:48:06.021Z,33.20
2018-12-10T04:50:39.852Z,33.20
2018-12-10T04:53:14.199Z,33.30
2018-12-10T04:55:48.014Z,33.30
2018-12-10T04:58:22.454Z,33.30
2018-12-10T05:00:56.571Z,33.40
2018-12-10T05:03:32.033Z,33.40
2018-12-10T05:06:05.876Z,33.50
2018-12-10T05:08:39.934Z,33.50
2018-12-10T05:11:14.629Z,33.50
2018-12-10T05:13:50.031Z,33.50
2018-12-10T05:16:24.232Z,33.50
2018-12-10T05:18:59.988Z,33.50
2018-12-10T05:21:36.448Z,33.50
2018-12-10T05:24:10.513Z,33.50
2018-12-10T05:26:48.731Z,33.40
2018-12-10T05:29:23.565Z,33.40
2018-12-10T05:31:57.297Z,33.30
2018-12-10T05:34:31.396Z,33.30
2018-12-10T05:37:06.247Z,33.30
2018-12-10T05:39:41.822Z,33.30
2018-12-10T05:42:15.819Z,33.30
2018-12-10T05:44:50.334Z,33.30
2018-12-10T05:47:25.600Z,33.30
2018-12-10T05:50:01.038Z,33.30
2018-12-10T05:52:38.933Z,33.40
2018-12-10T05:55:13.325Z,33.40
2018-12-10T05:57:47.057Z,33.40
2018-12-10T06:00:21.660Z,33.40
2018-12-10T06:02:55.368Z,33.40
2018-12-10T06:05:29.140Z,33.30
2018-12-10T06:08:02.966Z,33.30
2018-12-10T06:10:36.525Z,33.30
2018-12-10T06:13:10.456Z,33.30
2018-12-10T06:15:44.534Z,33.30
2018-12-10T06:18:19.131Z,33.30
2018-12-10T06:20:53.995Z,33.30
2018-12-10T06:23:28.076Z,33.30
2018-12-10T06:26:02.029Z,33.30
2018-12-10T06:28:35.972Z,33.30
2018-12-10T06:31:11.735Z,33.30
2018-12-10T06:33:47.422Z,33.40
2018-12-10T06:36:22.193Z,33.40
2018-12-10T06:38:56.090Z,33.40
2018-12-10T06:41:31.914Z,33.50
2018-12-10T06:44:06.385Z,33.50
2018-12-10T06:46:43.423Z,33.50
2018-12-10T06:49:17.924Z,33.50
2018-12-10T06:51:52.337Z,33.50
2018-12-10T06:54:26.472Z,33.60
2018-12-10T06:57:00.632Z,33.60
2018-12-10T06:59:37.599Z,33.60
2018-12-10T07:02:17.782Z,33.60
2018-12-10T07:04:53.061Z,33.60
2018-12-10T07:07:27.220Z,33.60
2018-12-10T07:10:01.479Z,33.60
2018-12-10T07:12:35.343Z,33.60
2018-12-10T07:15:14.129Z,33.60
2018-12-10T07:17:47.828Z,33.60
2018-12-10T07:20:27.286Z,33.60
2018-12-10T07:23:01.747Z,33.50
2018-12-10T07:25:36.843Z,33.50
2018-12-10T07:28:10.567Z,33.50
2018-12-10T07:30:45.146Z,33.50
2018-12-10T07:33:19.816Z,33.50
2018-12-10T07:35:55.888Z,33.50
2018-12-10T07:38:29.917Z,33.50
2018-12-10T07:41:05.533Z,33.50
2018-12-10T07:43:39.983Z,33.40
2018-12-10T07:46:13.686Z,33.40
2018-12-10T07:48:48.367Z,33.30
2018-12-10T07:51:26.922Z,33.30
2018-12-10T07:54:11.176Z,33.20
2018-12-10T07:56:49.059Z,33.20
2018-12-10T07:59:23.581Z,33.10
2018-12-10T08:01:57.704Z,33.10
2018-12-10T08:04:33.094Z,33.10
2018-12-10T08:07:16.540Z,33.00
2018-12-10T08:09:54.472Z,33.00
2018-12-10T08:12:28.440Z,33.00
2018-12-10T08:15:03.433Z,33.00
2018-12-10T08:17:38.067Z,33.00
2018-12-10T08:20:13.172Z,33.00
2018-12-10T08:22:48.214Z,32.90
2018-12-10T08:25:37.747Z,32.90
2018-12-10T08:30:54.122Z,32.80
2018-12-10T08:33:32.187Z,32.80
2018-12-10T08:36:06.852Z,32.80
2018-12-10T08:38:40.411Z,32.70
2018-12-10T08:41:14.667Z,32.70
2018-12-10T08:43:53.824Z,32.70
2018-12-10T08:46:29.319Z,32.70
2018-12-10T08:49:04.403Z,32.70
2018-12-10T08:51:38.439Z,32.70
2018-12-10T08:54:12.214Z,32.70
2018-12-10T08:56:46.216Z,32.70
2018-12-10T08:59:25.909Z,32.70
2018-12-10T09:02:00.850Z,32.60
2018-12-10T09:04:36.654Z,32.60
2018-12-10T09:07:11.198Z,32.60
2018-12-10T09:09:47.281Z,32.60
2018-12-10T09:12:21.573Z,32.60
2018-12-10T09:14:56.906Z,32.60
2018-12-10T09:17:30.842Z,32.60
2018-12-10T09:20:05.312Z,32.60
2018-12-10T09:22:40.002Z,32.50
2018-12-10T09:25:15.210Z,32.40
2018-12-10T09:27:54.383Z,32.50
2018-12-10T09:30:31.025Z,32.40
2018-12-10T09:33:05.115Z,32.50
2018-12-10T09:35:38.871Z,32.40
2018-12-10T09:38:13.104Z,32.40
2018-12-10T09:40:48.084Z,32.40
2018-12-10T09:43:23.184Z,32.40
2018-12-10T09:45:58.912Z,32.40
2018-12-10T09:48:33.985Z,32.40
2018-12-10T09:51:10.064Z,32.30
2018-12-10T09:53:44.374Z,32.40
2018-12-10T09:56:18.864Z,32.30
2018-12-10T09:58:53.254Z,32.30
2018-12-10T10:01:29.596Z,32.30
2018-12-10T10:04:03.860Z,32.30
2018-12-10T10:06:37.884Z,32.30
2018-12-10T10:09:12.196Z,32.40
2018-12-10T10:11:46.315Z,32.30
2018-12-10T10:14:20.283Z,32.30
2018-12-10T10:16:58.681Z,32.30
2018-12-10T10:19:32.956Z,32.30
2018-12-10T10:22:07.313Z,32.30
2018-12-10T10:24:41.669Z,32.30
2018-12-10T10:27:17.628Z,32.30
2018-12-10T10:29:51.875Z,32.30
2018-12-10T10:32:27.135Z,32.30
2018-12-10T10:35:01.017Z,32.30
2018-12-10T10:37:35.353Z,32.30
2018-12-10T10:40:09.395Z,32.30
2018-12-10T10:42:43.662Z,32.30
2018-12-10T10:45:17.465Z,32.40
2018-12-10T10:47:55.002Z,32.30
2018-12-10T10:50:29.706Z,32.30
2018-12-10T10:53:05.362Z,32.30
2018-12-10T10:55:41.135Z,32.30
2018-12-10T10:58:22.477Z,32.30
2018-12-10T11:01:06.034Z,32.30
2018-12-10T11:03:41.430Z,32.30
2018-12-10T11:06:20.229Z,32.30
2018-12-10T11:08:56.656Z,32.30
2018-12-10T11:11:37.341Z,32.20
2018-12-10T11:14:11.703Z,32.20
2018-12-10T11:16:45.631Z,32.20
2018-12-10T11:19:19.554Z,32.20
2018-12-10T11:21:54.227Z,32.20
2018-12-10T11:24:28.463Z,32.20
2018-12-10T11:27:02.621Z,32.20
2018-12-10T11:29:36.290Z,32.20
2018-12-10T11:32:10.324Z,32.20
2018-12-10T11:34:44.533Z,32.20
2018-12-10T11:37:18.192Z,32.20
2018-12-10T11:39:52.031Z,32.20
2018-12-10T11:42:25.879Z,32.20
2018-12-10T11:45:02.082Z,32.20
2018-12-10T11:47:36.139Z,32.20
2018-12-10T11:50:11.041Z,32.10
2018-12-10T11:52:46.077Z,32.10
2018-12-10T11:55:22.087Z,32.10
2018-12-10T11:57:58.078Z,32.20
2018-12-10T12:00:32.000Z,32.10
2018-12-10T12:03:05.721Z,32.10
2018-12-10T12:05:39.812Z,32.20
2018-12-10T12:08:13.902Z,32.20
2018-12-10T12:10:49.624Z,32.20
2018-12-10T12:13:24.750Z,32.10
2018-12-10T12:15:58.716Z,32.20
2018-12-10T12:18:33.016Z,32.20
2018-12-10T12:21:06.635Z,32.10
2018-12-10T12:23:40.446Z,32.20
2018-12-10T12:26:15.270Z,32.10
2018-12-10T12:28:50.422Z,32.10
2018-12-10T12:31:28.172Z,32.10
2018-12-10T12:34:02.531Z,32.10
2018-12-10T12:36:37.358Z,32.10
2018-12-10T12:39:11.773Z,32.10
2018-12-10T12:41:46.922Z,32.10
2018-12-10T12:44:21.006Z,32.10
2018-12-10T12:46:56.661Z,32.20
2018-12-10T12:49:30.485Z,32.10
2018-12-10T12:52:05.127Z,32.20
2018-12-10T12:54:39.439Z,32.20
2018-12-10T12:57:13.659Z,32.10
2018-12-10T12:59:47.980Z,32.20
2018-12-10T13:02:21.767Z,32.20
2018-12-10T13:04:56.884Z,32.10
2018-12-10T13:07:31.808Z,32.10
2018-12-10T13:10:08.002Z,32.20
2018-12-10T13:12:42.317Z,32.20
2018-12-10T13:15:17.302Z,32.10
2018-12-10T13:17:50.691Z,32.10
2018-12-10T13:20:24.343Z,32.10
2018-12-10T13:22:59.638Z,32.10
2018-12-10T13:25:36.369Z,32.10
2018-12-10T13:28:11.516Z,32.10
2018-12-10T13:30:45.648Z,32.10
2018-12-10T13:33:20.453Z,32.00
2018-12-10T13:35:54.657Z,31.90
2018-12-10T13:38:28.494Z,31.80
2018-12-10T13:41:03.000Z,31.80
2018-12-10T13:46:15.871Z,31.60
2018-12-10T13:48:50.918Z,31.50
2018-12-10T13:51:26.871Z,31.50
2018-12-10T13:54:01.746Z,31.40
2018-12-10T13:56:36.901Z,31.30
2018-12-10T13:59:11.061Z,31.30
2018-12-10T14:01:44.775Z,31.30
2018-12-10T14:04:24.084Z,31.20
2018-12-10T14:06:59.271Z,31.20
2018-12-10T14:09:32.746Z,31.20
2018-12-10T14:12:06.937Z,31.10
2018-12-10T14:14:40.755Z,31.10
2018-12-10T14:17:16.806Z,31.00
2018-12-10T14:19:51.005Z,31.00
2018-12-10T14:22:25.282Z,30.90
2018-12-10T14:24:59.357Z,30.90
2018-12-10T14:27:33.648Z,30.80
2018-12-10T14:30:08.798Z,30.70
2018-12-10T14:32:42.737Z,30.70
2018-12-10T14:35:16.938Z,30.60
2018-12-10T14:37:51.593Z,30.60
2018-12-10T14:40:25.929Z,30.50
2018-12-10T14:43:00.635Z,30.50
2018-12-10T14:45:35.120Z,30.50
2018-12-10T14:48:09.219Z,30.40
2018-12-10T14:50:43.250Z,30.40
2018-12-10T14:53:16.766Z,30.40
2018-12-10T14:55:52.676Z,30.40
2018-12-10T14:58:26.791Z,30.40
2018-12-10T15:01:01.229Z,30.50
2018-12-10T15:03:35.142Z,30.40
2018-12-10T15:06:08.921Z,30.50
2018-12-10T15:08:42.475Z,30.50
2018-12-10T15:11:16.316Z,30.50
2018-12-10T15:13:50.423Z,30.50
2018-12-10T15:16:25.421Z,30.60
2018-12-10T15:19:00.412Z,30.60
2018-12-10T15:21:34.958Z,30.60
2018-12-10T15:24:08.718Z,30.60
2018-12-10T15:26:42.564Z,30.60
2018-12-10T15:29:16.873Z,30.60
2018-12-10T15:31:51.876Z,30.60
2018-12-10T15:34:26.100Z,30.70
2018-12-10T15:36:59.739Z,30.60
2018-12-10T15:39:34.167Z,30.60
2018-12-10T15:42:08.205Z,30.60
2018-12-10T15:44:52.439Z,30.60
2018-12-10T15:47:26.438Z,30.70
2018-12-10T15:50:00.443Z,30.70
2018-12-10T15:52:34.726Z,30.60
2018-12-10T15:55:08.863Z,30.60
2018-12-10T15:57:43.350Z,30.60
2018-12-10T16:00:18.891Z,30.60
2018-12-10T16:02:53.300Z,30.60
2018-12-10T16:05:27.231Z,30.60
2018-12-10T16:08:01.401Z,30.60
2018-12-10T16:10:35.249Z,30.60
2018-12-10T16:13:09.714Z,30.60
2018-12-10T16:15:43.271Z,30.60
2018-12-10T16:18:17.288Z,30.60
2018-12-10T16:20:51.290Z,30.60
2018-12-10T16:23:25.445Z,30.60
2018-12-10T16:25:59.388Z,30.60
2018-12-10T16:28:33.081Z,30.60
2018-12-10T16:31:07.187Z,30.70
2018-12-10T16:33:41.045Z,30.60
2018-12-10T16:36:15.857Z,30.60
2018-12-10T16:38:50.068Z,30.60
2018-12-10T16:41:23.918Z,30.70
2018-12-10T16:43:58.000Z,30.60
2018-12-10T16:46:31.570Z,30.60
2018-12-10T16:49:05.613Z,30.60
2018-12-10T16:51:39.874Z,30.60
2018-12-10T16:54:13.788Z,30.60
2018-12-10T16:56:47.915Z,30.60
2018-12-10T16:59:22.757Z,30.60
2018-12-10T17:01:56.812Z,30.60
2018-12-10T17:04:31.456Z,30.60
2018-12-10T17:07:06.215Z,30.60
2018-12-10T17:09:40.551Z,30.60
2018-12-10T17:12:14.759Z,30.50
2018-12-10T17:14:48.787Z,30.50
2018-12-10T17:17:22.926Z,30.50
2018-12-10T17:19:58.493Z,30.50
2018-12-10T17:22:32.681Z,30.50
2018-12-10T17:25:06.818Z,30.40
2018-12-10T17:27:40.867Z,30.40
2018-12-10T17:30:15.821Z,30.40
2018-12-10T17:32:50.449Z,30.40
2018-12-10T17:35:25.312Z,30.40
2018-12-10T17:37:59.503Z,30.40
2018-12-10T17:40:33.512Z,30.40
2018-12-10T17:43:07.383Z,30.30
2018-12-10T17:45:43.241Z,30.30
2018-12-10T17:48:17.420Z,30.30
2018-12-10T17:50:51.110Z,30.30
2018-12-10T17:53:25.157Z,30.20
2018-12-10T17:55:59.081Z,30.20
2018-12-10T17:58:34.197Z,30.20
2018-12-10T18:01:09.153Z,30.20
2018-12-10T18:03:43.624Z,30.20
2018-12-10T18:06:18.954Z,30.20
2018-12-10T18:08:53.286Z,30.20
2018-12-10T18:11:37.377Z,30.20
2018-12-10T18:14:11.804Z,30.20
2018-12-10T18:16:45.470Z,30.20
2018-12-10T18:19:33.300Z,30.10
2018-12-10T18:22:07.325Z,30.20
2018-12-10T18:24:41.493Z,30.10
2018-12-10T18:27:15.707Z,30.20
2018-12-10T18:29:50.600Z,30.10
2018-12-10T18:32:24.925Z,30.10
2018-12-10T18:34:59.922Z,30.10
2018-12-10T18:37:34.370Z,30.10
2018-12-10T18:40:08.695Z,30.10
2018-12-10T18:42:42.759Z,30.10
2018-12-10T18:45:21.091Z,30.10
2018-12-10T18:47:55.157Z,30.10
2018-12-10T18:50:30.459Z,30.10
2018-12-10T18:53:04.698Z,30.10
2018-12-10T18:55:39.279Z,30.10
2018-12-10T18:58:13.296Z,30.00
2018-12-10T19:00:47.285Z,30.10
2018-12-10T19:03:22.288Z,30.10
2018-12-10T19:05:55.858Z,30.00
2018-12-10T19:08:32.873Z,30.00
2018-12-10T19:11:06.504Z,30.00
2018-12-10T19:13:40.381Z,30.00
2018-12-10T19:16:14.836Z,30.00
2018-12-10T19:18:48.709Z,30.00
2018-12-10T19:21:24.962Z,30.00
2018-12-10T19:23:59.808Z,30.00
2018-12-10T19:26:34.216Z,30.00
2018-12-10T19:29:08.892Z,30.00
2018-12-10T19:31:43.205Z,30.00
2018-12-10T19:34:21.353Z,30.00
2018-12-10T19:36:55.405Z,30.00
2018-12-10T19:39:29.769Z,29.90
2018-12-10T19:42:04.191Z,29.90
2018-12-10T19:44:39.468Z,29.90
2018-12-10T19:47:14.026Z,29.90
2018-12-10T19:49:47.779Z,29.90
2018-12-10T19:52:23.657Z,29.80
2018-12-10T19:54:57.787Z,29.80
2018-12-10T19:57:32.654Z,29.80
2018-12-10T20:00:06.476Z,29.80
2018-12-10T20:02:41.145Z,29.80
2018-12-10T20:05:16.498Z,29.80
2018-12-10T20:07:51.798Z,29.70
2018-12-10T20:10:26.679Z,29.70
2018-12-10T20:13:05.575Z,29.70
2018-12-10T20:15:41.358Z,29.70
2018-12-10T20:18:16.788Z,29.60
2018-12-10T20:20:51.065Z,29.60
2018-12-10T20:23:26.034Z,29.60
2018-12-10T20:26:00.860Z,29.60
2018-12-10T20:28:35.973Z,29.60
2018-12-10T20:31:09.990Z,29.60
2018-12-10T20:33:43.965Z,29.60
2018-12-10T20:36:18.296Z,29.50
2018-12-10T20:38:54.398Z,29.50
2018-12-10T20:41:28.204Z,29.50
2018-12-10T20:44:02.322Z,29.60
2018-12-10T20:46:36.269Z,29.60
2018-12-10T20:49:11.657Z,29.50
2018-12-10T20:51:45.379Z,29.50
2018-12-10T20:54:20.776Z,29.50
2018-12-10T20:56:55.034Z,29.50
2018-12-10T20:59:29.673Z,29.50
2018-12-10T21:02:03.795Z,29.50
2018-12-10T21:04:37.836Z,29.50
2018-12-10T21:07:12.871Z,29.40
2018-12-10T21:09:47.228Z,29.40
2018-12-10T21:12:21.473Z,29.40
2018-12-10T21:15:00.420Z,29.40
2018-12-10T21:17:31.717Z,29.40
2018-12-10T21:20:06.916Z,29.30
2018-12-10T21:22:41.158Z,29.30
2018-12-10T21:25:16.531Z,29.30
2018-12-10T21:27:51.659Z,29.30
2018-12-10T21:30:25.428Z,29.30
2018-12-10T21:33:00.041Z,29.20
2018-12-10T21:35:33.961Z,29.30
2018-12-10T21:38:08.108Z,29.20
2018-12-10T21:40:43.558Z,29.20
2018-12-10T21:43:17.685Z,29.20
2018-12-10T21:45:51.582Z,29.20
2018-12-10T21:48:27.538Z,29.20
2018-12-10T21:51:01.338Z,29.20
2018-12-10T21:53:35.039Z,29.20
2018-12-10T21:56:09.152Z,29.10
2018-12-10T21:58:44.088Z,29.10
2018-12-10T22:01:18.940Z,29.10
2018-12-10T22:03:52.838Z,29.10
2018-12-10T22:06:26.710Z,29.10
2018-12-10T22:09:01.851Z,29.10
2018-12-10T22:11:36.145Z,29.10
2018-12-10T22:14:10.084Z,29.20
2018-12-10T22:16:44.277Z,29.10
2018-12-10T22:19:18.806Z,29.10
2018-12-10T22:21:52.975Z,29.10
2018-12-10T22:24:26.899Z,29.10
2018-12-10T22:27:01.078Z,29.10
2018-12-10T22:29:34.999Z,29.10
2018-12-10T22:32:09.485Z,29.10
2018-12-10T22:34:43.723Z,29.10
2018-12-10T22:37:17.696Z,29.10
2018-12-10T22:39:51.413Z,29.00
2018-12-10T22:42:26.557Z,29.00
2018-12-10T22:45:00.140Z,29.00
2018-12-10T22:47:34.276Z,29.00
2018-12-10T22:50:08.377Z,29.00
2018-12-10T22:52:44.450Z,29.00
2018-12-10T22:55:19.175Z,29.00
2018-12-10T22:57:52.949Z,29.00
2018-12-10T23:00:49.748Z,29.00
2018-12-10T23:03:23.952Z,29.00
2018-12-10T23:05:57.826Z,29.10
2018-12-10T23:08:39.934Z,29.00
2018-12-10T23:11:17.558Z,29.00
2018-12-10T23:13:51.620Z,29.00
2018-12-10T23:16:25.736Z,29.00
2018-12-10T23:18:59.850Z,29.00
2018-12-10T23:21:34.289Z,29.00
2018-12-10T23:24:09.041Z,29.00
2018-12-10T23:26:42.961Z,29.00
2018-12-10T23:29:17.124Z,29.00
2018-12-10T23:31:52.094Z,29.00
2018-12-10T23:34:27.340Z,29.00
2018-12-10T23:37:02.530Z,29.00
2018-12-10T23:39:36.019Z,29.00
2018-12-10T23:42:10.282Z,29.00
2018-12-10T23:44:48.129Z,28.90
2018-12-10T23:47:23.226Z,28.90
2018-12-10T23:49:57.056Z,29.00
2018-12-10T23:52:32.245Z,28.90
2018-12-10T23:55:06.252Z,28.90
2018-12-10T23:57:40.152Z,28.90
